Time;durP1;ratioP1;P1;durP2;ratioP2;P2;SDS_P1;SDS_P2;PMS_P1;PMS_P2;Temp;Humidity;BMP_temperature;BMP_pressure;BME280_temperature;BME280_humidity;BME280_pressure;Samples;Min_cycle;Max_cycle;Signal;HPM_P1;HPM_P2
2021/12/28 00:01:22;;;;;;;131.85;45.10;;;;;;;;;;5038044;28;20026;-72
2021/12/28 00:03:50;;;;;;;155.85;50.88;;;;;;;;;;5038202;28;20032;-73
2021/12/28 00:06:18;;;;;;;162.75;49.22;;;;;;;;;;5038037;28;20044;-72
2021/12/28 00:08:46;;;;;;;157.65;49.15;;;;;;;;;;5038106;28;20026;-73
2021/12/28 00:11:14;;;;;;;154.27;47.65;;;;;;;;;;5038040;28;20373;-73
2021/12/28 00:13:43;;;;;;;153.85;48.97;;;;;;;;;;5036930;28;20032;-72
2021/12/28 00:18:44;;;;;;;153.75;54.42;;;;;;;;;;5037854;28;20503;-72
2021/12/28 00:21:12;;;;;;;165.52;51.60;;;;;;;;;;5037742;28;20029;-72
2021/12/28 00:23:40;;;;;;;160.95;50.53;;;;;;;;;;5037777;28;20049;-72
2021/12/28 00:26:11;;;;;;;148.95;46.63;;;;;;;;;;5037748;28;20017;-73
2021/12/28 00:28:41;;;;;;;135.15;45.78;;;;;;;;;;5036303;28;20048;-73
2021/12/28 00:31:08;;;;;;;139.10;45.17;;;;;;;;;;5037671;28;20029;-72
2021/12/28 00:33:35;;;;;;;140.90;44.08;;;;;;;;;;5036655;28;20369;-72
2021/12/28 00:36:03;;;;;;;160.68;48.47;;;;;;;;;;5037535;28;20048;-73
2021/12/28 00:38:32;;;;;;;136.20;46.00;;;;;;;;;;5037414;28;20026;-72
2021/12/28 00:41:01;;;;;;;132.27;45.55;;;;;;;;;;5036289;28;20025;-71
2021/12/28 00:43:29;;;;;;;128.07;45.88;;;;;;;;;;5037332;28;20026;-73
2021/12/28 00:45:57;;;;;;;134.13;45.53;;;;;;;;;;5036655;28;20421;-72
2021/12/28 00:48:24;;;;;;;121.65;41.53;;;;;;;;;;5037088;28;20037;-72
2021/12/28 00:50:52;;;;;;;114.50;40.70;;;;;;;;;;5035670;28;20017;-72
2021/12/28 00:53:20;;;;;;;106.88;38.22;;;;;;;;;;5036888;28;20021;-72
2021/12/28 00:55:47;;;;;;;114.60;40.30;;;;;;;;;;5037059;28;20477;-72
2021/12/28 00:58:16;;;;;;;115.57;39.65;;;;;;;;;;5037098;28;20025;-72
2021/12/28 01:00:44;;;;;;;104.57;37.00;;;;;;;;;;5037014;28;20029;-73
2021/12/28 01:03:13;;;;;;;112.45;38.78;;;;;;;;;;5036882;28;20022;-72
2021/12/28 01:05:40;;;;;;;123.35;41.05;;;;;;;;;;5036630;28;20377;-72
2021/12/28 01:08:09;;;;;;;121.30;40.25;;;;;;;;;;5035697;28;20034;-72
2021/12/28 01:10:39;;;;;;;123.90;41.55;;;;;;;;;;5035641;28;20022;-72
2021/12/28 01:13:06;;;;;;;135.52;46.03;;;;;;;;;;5035610;28;20426;-72
2021/12/28 01:15:37;;;;;;;121.00;42.90;;;;;;;;;;5036427;28;20430;-72
2021/12/28 01:18:05;;;;;;;111.18;38.08;;;;;;;;;;5036370;28;20029;-72
2021/12/28 01:20:33;;;;;;;120.07;39.33;;;;;;;;;;5036580;28;20037;-72
2021/12/28 01:23:03;;;;;;;138.80;43.20;;;;;;;;;;5035519;28;20438;-72
2021/12/28 01:25:32;;;;;;;119.03;39.97;;;;;;;;;;5036414;28;20039;-72
2021/12/28 01:27:59;;;;;;;124.18;42.17;;;;;;;;;;5034907;28;20026;-71
2021/12/28 01:30:26;;;;;;;132.40;46.92;;;;;;;;;;5035092;28;20154;-72
2021/12/28 01:32:57;;;;;;;133.27;45.38;;;;;;;;;;5036336;28;20034;-71
2021/12/28 01:35:24;;;;;;;144.98;44.97;;;;;;;;;;5035240;28;20099;-72
2021/12/28 01:37:52;;;;;;;142.60;48.08;;;;;;;;;;5036306;28;20770;-72
2021/12/28 01:40:21;;;;;;;165.30;55.33;;;;;;;;;;5035167;28;20413;-72
2021/12/28 01:43:08;;;;;;;153.00;48.50;;;;;;;;;;5035012;28;20033;-72
2021/12/28 01:45:40;;;;;;;146.32;46.67;;;;;;;;;;5036275;28;20048;-72
2021/12/28 01:48:09;;;;;;;134.38;44.45;;;;;;;;;;5036164;28;20033;-72
2021/12/28 01:50:37;;;;;;;155.75;48.30;;;;;;;;;;5036204;28;20024;-71
2021/12/28 01:53:05;;;;;;;157.18;51.30;;;;;;;;;;5036178;28;20026;-72
2021/12/28 01:55:35;;;;;;;157.35;47.85;;;;;;;;;;5034872;28;20033;-72
2021/12/28 01:58:03;;;;;;;156.25;52.80;;;;;;;;;;5034047;28;20029;-72
2021/12/28 02:00:31;;;;;;;171.02;58.53;;;;;;;;;;5033988;28;20035;-71
2021/12/28 02:02:59;;;;;;;164.32;55.00;;;;;;;;;;5034686;28;20053;-72
2021/12/28 02:05:26;;;;;;;144.35;47.60;;;;;;;;;;5035953;28;20021;-71
2021/12/28 02:07:54;;;;;;;166.50;52.75;;;;;;;;;;5034566;28;20040;-71
2021/12/28 02:10:22;;;;;;;177.32;57.72;;;;;;;;;;5034622;28;20021;-72
2021/12/28 02:12:49;;;;;;;178.13;60.28;;;;;;;;;;5035925;28;20426;-73
2021/12/28 02:15:17;;;;;;;173.65;59.78;;;;;;;;;;5035859;28;20080;-75
2021/12/28 02:17:44;;;;;;;160.95;55.40;;;;;;;;;;5036005;28;20053;-76
2021/12/28 02:20:13;;;;;;;182.48;63.25;;;;;;;;;;5035934;28;20026;-76
2021/12/28 02:22:41;;;;;;;198.93;62.40;;;;;;;;;;5035859;28;20032;-76
2021/12/28 02:25:11;;;;;;;192.13;58.17;;;;;;;;;;5035834;28;20052;-77
2021/12/28 02:27:39;;;;;;;163.35;51.80;;;;;;;;;;5035660;28;20453;-76
2021/12/28 02:30:06;;;;;;;194.55;60.25;;;;;;;;;;5033999;28;20132;-76
2021/12/28 02:32:32;;;;;;;175.02;55.60;;;;;;;;;;5035588;28;20032;-76
2021/12/28 02:35:00;;;;;;;178.55;58.25;;;;;;;;;;5036726;28;20091;-73
2021/12/28 02:37:31;;;;;;;168.43;53.63;;;;;;;;;;5036038;28;20095;-72
2021/12/28 02:40:02;;;;;;;179.52;57.08;;;;;;;;;;5036531;28;20029;-73
2021/12/28 02:42:33;;;;;;;197.00;58.97;;;;;;;;;;5036381;28;20028;-72
2021/12/28 02:45:10;;;;;;;164.52;53.97;;;;;;;;;;5036300;28;20423;-73
2021/12/28 02:47:42;;;;;;;152.27;46.60;;;;;;;;;;5036184;28;20442;-73
2021/12/28 02:50:14;;;;;;;154.27;51.67;;;;;;;;;;5035606;28;20319;-71
2021/12/28 02:52:41;;;;;;;158.88;49.97;;;;;;;;;;5035553;28;20013;-70
2021/12/28 02:55:10;;;;;;;168.20;47.25;;;;;;;;;;5034439;28;20029;-70
2021/12/28 02:57:38;;;;;;;152.35;50.28;;;;;;;;;;5035488;28;20061;-70
2021/12/28 03:00:06;;;;;;;166.55;52.78;;;;;;;;;;5035255;28;20441;-72
2021/12/28 03:02:37;;;;;;;138.85;46.33;;;;;;;;;;5035504;28;20029;-72
2021/12/28 03:05:05;;;;;;;141.75;46.22;;;;;;;;;;5035284;28;20033;-76
2021/12/28 03:07:33;;;;;;;145.35;47.63;;;;;;;;;;5033758;28;20105;-73
2021/12/28 03:10:00;;;;;;;169.23;53.75;;;;;;;;;;5036327;28;20041;-72
2021/12/28 03:12:28;;;;;;;195.15;60.92;;;;;;;;;;5037447;28;20025;-76
2021/12/28 03:14:55;;;;;;;170.77;51.47;;;;;;;;;;5038823;28;20379;-74
2021/12/28 03:17:23;;;;;;;172.65;54.95;;;;;;;;;;5038809;28;20026;-76
2021/12/28 03:19:51;;;;;;;171.90;55.10;;;;;;;;;;5037285;28;20087;-74
2021/12/28 03:22:18;;;;;;;163.10;52.90;;;;;;;;;;5037334;28;20030;-78
2021/12/28 03:24:46;;;;;;;150.43;50.90;;;;;;;;;;5037404;28;20036;-74
2021/12/28 03:27:13;;;;;;;164.20;55.15;;;;;;;;;;5038252;28;20032;-73
2021/12/28 03:29:40;;;;;;;209.27;75.65;;;;;;;;;;5038335;28;20057;-73
2021/12/28 03:32:09;;;;;;;200.15;65.50;;;;;;;;;;5038408;28;20026;-74
2021/12/28 03:34:37;;;;;;;171.13;58.17;;;;;;;;;;5038215;28;20025;-76
2021/12/28 03:37:04;;;;;;;175.02;56.70;;;;;;;;;;5038330;28;20095;-73
2021/12/28 03:39:32;;;;;;;176.90;63.28;;;;;;;;;;5037181;28;20032;-72
2021/12/28 03:41:59;;;;;;;180.65;65.03;;;;;;;;;;5035802;28;20029;-71
2021/12/28 03:44:27;;;;;;;212.30;75.93;;;;;;;;;;5026002;28;20030;-72
2021/12/28 03:46:54;;;;;;;213.55;79.75;;;;;;;;;;5036901;28;20116;-71
2021/12/28 03:49:22;;;;;;;220.00;81.43;;;;;;;;;;5022874;28;20080;-71
2021/12/28 03:51:50;;;;;;;205.98;78.35;;;;;;;;;;5017726;28;20053;-72
2021/12/28 03:54:17;;;;;;;215.05;77.18;;;;;;;;;;5017145;28;20026;-70
2021/12/28 03:56:45;;;;;;;213.77;79.45;;;;;;;;;;5017226;28;20029;-70
2021/12/28 03:59:12;;;;;;;198.25;76.57;;;;;;;;;;5017991;28;20034;-70
2021/12/28 04:01:40;;;;;;;236.63;89.97;;;;;;;;;;5033177;28;20028;-70
2021/12/28 04:04:08;;;;;;;234.63;86.40;;;;;;;;;;5037668;28;20052;-70
2021/12/28 04:06:35;;;;;;;268.08;103.60;;;;;;;;;;5037512;28;20029;-70
2021/12/28 04:09:04;;;;;;;228.15;91.22;;;;;;;;;;5019942;28;20022;-71
2021/12/28 04:11:32;;;;;;;190.10;75.95;;;;;;;;;;5009416;28;20030;-71
2021/12/28 04:14:01;;;;;;;191.50;71.40;;;;;;;;;;5013579;28;20022;-70
2021/12/28 04:16:29;;;;;;;180.13;71.18;;;;;;;;;;5017414;28;20058;-71
2021/12/28 04:18:57;;;;;;;229.38;79.65;;;;;;;;;;5016921;28;20025;-71
2021/12/28 04:21:25;;;;;;;209.73;80.55;;;;;;;;;;5011769;28;20335;-70
2021/12/28 04:23:53;;;;;;;195.95;79.03;;;;;;;;;;5024844;28;20029;-70
2021/12/28 04:26:20;;;;;;;200.07;82.05;;;;;;;;;;5033812;28;20117;-69
2021/12/28 04:28:47;;;;;;;220.32;95.60;;;;;;;;;;5035431;28;20323;-69
2021/12/28 04:31:14;;;;;;;184.20;75.80;;;;;;;;;;5036990;28;20540;-69
2021/12/28 04:33:42;;;;;;;191.57;76.10;;;;;;;;;;5036909;28;20048;-68
2021/12/28 04:36:12;;;;;;;199.55;83.25;;;;;;;;;;5036578;28;20025;-69
2021/12/28 04:38:41;;;;;;;178.77;70.15;;;;;;;;;;5037717;28;20030;-69
2021/12/28 04:41:09;;;;;;;161.70;63.63;;;;;;;;;;5035678;28;20026;-71
2021/12/28 04:43:38;;;;;;;147.63;58.00;;;;;;;;;;5036202;28;20040;-70
2021/12/28 04:46:06;;;;;;;115.78;44.83;;;;;;;;;;5036188;28;20056;-69
2021/12/28 04:48:34;;;;;;;113.53;41.70;;;;;;;;;;5032840;28;20033;-69
2021/12/28 04:51:03;;;;;;;110.30;44.05;;;;;;;;;;5021065;28;20077;-69
2021/12/28 04:53:31;;;;;;;111.82;43.97;;;;;;;;;;5015347;28;20065;-68
2021/12/28 04:55:58;;;;;;;128.57;46.88;;;;;;;;;;5016451;28;20022;-69
2021/12/28 04:58:26;;;;;;;128.32;47.30;;;;;;;;;;5016012;28;20052;-68
2021/12/28 05:00:54;;;;;;;114.47;43.40;;;;;;;;;;5015300;28;20034;-68
2021/12/28 05:03:22;;;;;;;136.77;50.70;;;;;;;;;;5015401;28;20442;-68
2021/12/28 05:05:50;;;;;;;132.95;45.33;;;;;;;;;;5016006;28;20041;-68
2021/12/28 05:08:19;;;;;;;118.78;44.63;;;;;;;;;;5016058;28;20312;-67
2021/12/28 05:10:47;;;;;;;126.82;47.00;;;;;;;;;;5016289;28;20027;-70
2021/12/28 05:13:26;;;;;;;112.30;44.10;;;;;;;;;;4994881;28;20054;-69
2021/12/28 05:15:54;;;;;;;117.22;40.70;;;;;;;;;;5006294;28;20441;-68
2021/12/28 05:18:21;;;;;;;115.82;46.10;;;;;;;;;;4990069;28;20037;-70
2021/12/28 05:20:49;;;;;;;159.25;55.45;;;;;;;;;;5013810;28;20040;-69
2021/12/28 05:23:17;;;;;;;128.48;47.08;;;;;;;;;;5014201;28;20041;-69
2021/12/28 05:25:45;;;;;;;179.57;57.22;;;;;;;;;;4997648;28;20077;-69
2021/12/28 05:28:12;;;;;;;147.45;50.92;;;;;;;;;;5013515;28;20405;-70
2021/12/28 05:30:40;;;;;;;152.95;51.13;;;;;;;;;;5013883;28;20037;-69
2021/12/28 05:33:08;;;;;;;158.10;50.35;;;;;;;;;;5013607;28;20022;-69
2021/12/28 05:35:35;;;;;;;173.07;55.03;;;;;;;;;;5000062;28;20093;-69
2021/12/28 05:38:03;;;;;;;197.38;63.17;;;;;;;;;;4994619;28;20082;-69
2021/12/28 05:40:30;;;;;;;194.27;61.83;;;;;;;;;;4994126;28;20038;-68
2021/12/28 05:42:58;;;;;;;155.88;51.00;;;;;;;;;;4994257;28;20121;-69
2021/12/28 05:45:26;;;;;;;160.73;55.30;;;;;;;;;;4994385;28;20355;-68
2021/12/28 05:47:54;;;;;;;129.80;47.83;;;;;;;;;;4993517;28;20452;-69
2021/12/28 05:50:22;;;;;;;145.98;51.97;;;;;;;;;;4994015;28;20039;-69
2021/12/28 05:52:49;;;;;;;142.77;51.97;;;;;;;;;;4993749;28;20026;-68
2021/12/28 05:55:17;;;;;;;124.60;48.05;;;;;;;;;;4993843;28;20030;-68
2021/12/28 05:57:44;;;;;;;138.55;47.97;;;;;;;;;;5021657;28;20038;-69
2021/12/28 06:00:16;;;;;;;133.68;52.22;;;;;;;;;;5015538;28;20088;-69
2021/12/28 06:02:45;;;;;;;130.93;51.90;;;;;;;;;;5015728;28;20346;-69
2021/12/28 06:05:13;;;;;;;121.38;44.78;;;;;;;;;;5016041;28;20017;-68
2021/12/28 06:07:40;;;;;;;121.55;48.10;;;;;;;;;;5031425;28;20026;-69
2021/12/28 06:10:08;;;;;;;117.85;45.47;;;;;;;;;;5015631;28;20080;-68
2021/12/28 06:12:35;;;;;;;136.68;54.10;;;;;;;;;;5015983;28;20129;-67
2021/12/28 06:15:03;;;;;;;148.60;51.40;;;;;;;;;;5015873;28;20045;-69
2021/12/28 06:17:31;;;;;;;129.30;49.05;;;;;;;;;;5015487;28;20022;-68
2021/12/28 06:19:58;;;;;;;130.88;50.22;;;;;;;;;;5030918;28;20030;-68
2021/12/28 06:22:26;;;;;;;119.38;44.50;;;;;;;;;;5031008;28;20026;-68
2021/12/28 06:24:54;;;;;;;114.65;45.00;;;;;;;;;;5015553;28;20089;-69
2021/12/28 06:27:22;;;;;;;130.02;47.60;;;;;;;;;;5031114;28;20029;-68
2021/12/28 06:29:48;;;;;;;113.00;43.85;;;;;;;;;;5030911;28;20057;-69
2021/12/28 06:32:14;;;;;;;111.45;44.92;;;;;;;;;;5015516;28;20029;-69
2021/12/28 06:34:42;;;;;;;108.72;43.35;;;;;;;;;;5018746;28;20057;-70
2021/12/28 06:37:10;;;;;;;103.93;40.97;;;;;;;;;;5035067;28;20109;-69
2021/12/28 06:39:37;;;;;;;97.50;40.13;;;;;;;;;;5033927;28;20175;-67
2021/12/28 06:42:05;;;;;;;111.40;44.65;;;;;;;;;;5035402;28;20326;-68
2021/12/28 06:44:33;;;;;;;122.95;46.80;;;;;;;;;;5037891;28;20075;-68
2021/12/28 06:47:00;;;;;;;123.55;43.72;;;;;;;;;;5039042;28;20025;-69
2021/12/28 06:49:28;;;;;;;112.82;43.70;;;;;;;;;;5037811;28;20163;-68
2021/12/28 06:51:56;;;;;;;122.03;45.03;;;;;;;;;;5038716;28;20021;-69
2021/12/28 06:54:23;;;;;;;124.82;48.17;;;;;;;;;;5037896;28;20026;-69
2021/12/28 06:56:51;;;;;;;116.40;44.22;;;;;;;;;;5039034;28;20027;-70
2021/12/28 06:59:19;;;;;;;114.85;45.45;;;;;;;;;;5018240;28;20065;-69
2021/12/28 07:01:46;;;;;;;117.13;45.05;;;;;;;;;;5018254;28;20322;-68
2021/12/28 07:04:13;;;;;;;117.57;44.20;;;;;;;;;;5018874;28;20084;-68
2021/12/28 07:06:41;;;;;;;129.52;49.33;;;;;;;;;;5022879;28;20030;-69
2021/12/28 07:09:08;;;;;;;131.23;48.90;;;;;;;;;;5028269;28;20022;-68
2021/12/28 07:11:36;;;;;;;121.65;46.60;;;;;;;;;;5036896;28;20021;-69
2021/12/28 07:14:03;;;;;;;110.78;43.67;;;;;;;;;;5038081;28;20025;-68
2021/12/28 07:16:32;;;;;;;130.48;49.65;;;;;;;;;;5036864;28;20071;-68
2021/12/28 07:18:59;;;;;;;114.72;47.13;;;;;;;;;;5037131;28;20488;-68
2021/12/28 07:21:27;;;;;;;137.60;54.67;;;;;;;;;;5037833;28;20045;-69
2021/12/28 07:23:55;;;;;;;136.52;52.05;;;;;;;;;;5036584;28;20026;-68
2021/12/28 07:26:23;;;;;;;242.30;98.53;;;;;;;;;;5036949;28;20022;-70
2021/12/28 07:28:49;;;;;;;132.82;52.13;;;;;;;;;;5036154;28;20398;-69
2021/12/28 07:31:16;;;;;;;137.98;53.63;;;;;;;;;;5037859;28;20017;-69
2021/12/28 07:33:44;;;;;;;140.07;52.50;;;;;;;;;;5037720;28;20017;-69
2021/12/28 07:36:12;;;;;;;142.10;51.70;;;;;;;;;;5035709;28;20029;-69
2021/12/28 07:38:39;;;;;;;172.05;74.95;;;;;;;;;;5037642;28;20101;-69
2021/12/28 07:41:07;;;;;;;164.25;66.70;;;;;;;;;;5037302;28;20029;-68
2021/12/28 07:43:34;;;;;;;146.48;53.33;;;;;;;;;;5030739;28;20021;-69
2021/12/28 07:46:02;;;;;;;127.00;48.30;;;;;;;;;;5017565;28;20018;-69
2021/12/28 07:48:30;;;;;;;122.38;47.60;;;;;;;;;;5017346;28;20036;-69
2021/12/28 07:50:58;;;;;;;127.50;49.53;;;;;;;;;;5017286;28;20045;-74
2021/12/28 07:53:25;;;;;;;123.65;46.70;;;;;;;;;;5031486;28;20477;-67
2021/12/28 07:55:53;;;;;;;120.07;46.92;;;;;;;;;;5037056;28;20025;-74
2021/12/28 07:58:21;;;;;;;119.15;46.83;;;;;;;;;;5025653;28;20025;-70
2021/12/28 08:00:48;;;;;;;120.10;46.50;;;;;;;;;;5017231;28;20034;-71
2021/12/28 08:03:16;;;;;;;124.93;45.55;;;;;;;;;;5017107;28;20025;-71
2021/12/28 08:05:46;;;;;;;131.63;48.97;;;;;;;;;;5044757;28;20034;-71
2021/12/28 08:08:14;;;;;;;127.47;49.58;;;;;;;;;;5032679;28;20037;-71
2021/12/28 08:10:41;;;;;;;120.35;48.15;;;;;;;;;;5031951;28;20029;-69
2021/12/28 08:13:09;;;;;;;128.52;48.75;;;;;;;;;;5017157;28;20026;-68
2021/12/28 08:15:37;;;;;;;130.65;49.50;;;;;;;;;;5022123;28;20035;-67
2021/12/28 08:18:17;;;;;;;119.45;48.65;;;;;;;;;;5028521;28;20429;-68
2021/12/28 08:20:45;;;;;;;134.10;51.30;;;;;;;;;;5026843;28;20084;-68
2021/12/28 08:23:12;;;;;;;146.45;55.72;;;;;;;;;;5024330;28;20022;-69
2021/12/28 08:25:42;;;;;;;151.32;54.45;;;;;;;;;;5024897;28;20059;-69
2021/12/28 08:28:09;;;;;;;144.70;53.88;;;;;;;;;;5035721;28;20104;-70
2021/12/28 08:30:38;;;;;;;143.55;55.13;;;;;;;;;;5036718;28;20040;-69
2021/12/28 08:33:07;;;;;;;147.38;55.80;;;;;;;;;;5023284;28;20029;-69
2021/12/28 08:35:36;;;;;;;147.05;55.03;;;;;;;;;;5025448;28;20087;-68
2021/12/28 08:38:04;;;;;;;154.88;58.90;;;;;;;;;;5027212;28;20051;-69
2021/12/28 08:40:32;;;;;;;143.82;55.58;;;;;;;;;;5025319;28;20053;-70
2021/12/28 08:43:04;;;;;;;155.15;58.13;;;;;;;;;;5030909;28;20067;-68
2021/12/28 08:45:33;;;;;;;160.95;60.20;;;;;;;;;;5027878;28;20045;-69
2021/12/28 08:48:01;;;;;;;157.93;61.72;;;;;;;;;;5029171;28;20481;-69
2021/12/28 08:50:29;;;;;;;154.55;60.17;;;;;;;;;;5025068;28;20084;-69
2021/12/28 08:52:57;;;;;;;148.45;57.53;;;;;;;;;;5024447;28;20017;-68
2021/12/28 08:55:25;;;;;;;139.40;56.92;;;;;;;;;;5027435;28;20022;-69
2021/12/28 08:57:53;;;;;;;144.75;57.50;;;;;;;;;;5022740;28;20042;-68
2021/12/28 09:00:22;;;;;;;156.82;62.72;;;;;;;;;;5020043;28;20034;-69
2021/12/28 09:02:52;;;;;;;180.02;72.32;;;;;;;;;;5023465;28;21335;-69
2021/12/28 09:05:21;;;;;;;204.27;82.25;;;;;;;;;;5023706;28;20468;-70
2021/12/28 09:07:53;;;;;;;157.68;62.95;;;;;;;;;;5026113;28;20418;-70
2021/12/28 09:10:44;;;;;;;171.52;69.80;;;;;;;;;;4995860;28;20123;-69
2021/12/28 09:13:15;;;;;;;156.88;64.60;;;;;;;;;;4953364;29;20035;-70
2021/12/28 09:16:03;;;;;;;156.65;64.10;;;;;;;;;;4954755;29;20039;-74
2021/12/28 09:18:31;;;;;;;160.52;66.75;;;;;;;;;;4915960;29;20345;-70
2021/12/28 09:20:59;;;;;;;169.27;63.80;;;;;;;;;;4916919;29;20381;-68
2021/12/28 09:23:28;;;;;;;163.32;65.03;;;;;;;;;;4916271;29;20456;-74
2021/12/28 09:25:55;;;;;;;176.68;72.28;;;;;;;;;;4916468;29;20064;-70
2021/12/28 09:28:23;;;;;;;169.68;67.53;;;;;;;;;;4916354;29;20434;-73
2021/12/28 09:30:51;;;;;;;158.40;65.13;;;;;;;;;;4900776;29;20040;-70
2021/12/28 09:33:24;;;;;;;148.68;57.75;;;;;;;;;;4898468;29;20111;-71
2021/12/28 09:35:53;;;;;;;159.23;61.65;;;;;;;;;;4895860;29;20490;-69
2021/12/28 09:38:22;;;;;;;154.57;59.72;;;;;;;;;;4898468;29;20460;-68
2021/12/28 09:40:51;;;;;;;153.90;60.35;;;;;;;;;;4896023;29;20037;-68
2021/12/28 09:43:19;;;;;;;148.30;61.03;;;;;;;;;;4897421;29;20037;-68
2021/12/28 09:45:47;;;;;;;156.18;64.22;;;;;;;;;;4898939;29;20046;-68
2021/12/28 09:48:15;;;;;;;226.70;81.78;;;;;;;;;;4917273;29;20107;-70
2021/12/28 09:50:46;;;;;;;145.07;60.10;;;;;;;;;;4902392;29;20135;-70
2021/12/28 09:53:15;;;;;;;158.05;61.60;;;;;;;;;;4900509;29;20103;-68
2021/12/28 09:55:42;;;;;;;164.13;63.67;;;;;;;;;;4917033;29;20456;-68
2021/12/28 09:58:10;;;;;;;165.50;65.95;;;;;;;;;;4915904;29;20040;-70
2021/12/28 10:00:38;;;;;;;165.77;67.63;;;;;;;;;;4911837;29;20036;-70
2021/12/28 10:03:08;;;;;;;236.05;92.68;;;;;;;;;;4912496;29;20442;-69
2021/12/28 10:05:36;;;;;;;204.82;86.97;;;;;;;;;;4913482;29;20051;-69
2021/12/28 10:08:05;;;;;;;207.93;81.05;;;;;;;;;;4924054;29;20071;-69
2021/12/28 10:10:35;;;;;;;249.45;100.60;;;;;;;;;;4954753;29;20035;-70
2021/12/28 10:13:05;;;;;;;164.07;68.30;;;;;;;;;;4955121;29;20059;-70
2021/12/28 10:15:37;;;;;;;176.05;73.05;;;;;;;;;;4956617;29;20038;-70
2021/12/28 10:18:07;;;;;;;167.15;69.85;;;;;;;;;;4956393;28;20114;-68
2021/12/28 10:20:36;;;;;;;183.93;74.60;;;;;;;;;;4958979;29;20499;-68
2021/12/28 10:23:06;;;;;;;162.20;68.80;;;;;;;;;;4959225;29;20067;-70
2021/12/28 10:25:35;;;;;;;174.05;74.57;;;;;;;;;;4959492;29;20058;-70
2021/12/28 10:28:07;;;;;;;172.18;70.22;;;;;;;;;;4959595;29;20412;-70
2021/12/28 10:30:52;;;;;;;165.38;73.88;;;;;;;;;;4960130;29;20090;-69
2021/12/28 10:33:21;;;;;;;252.93;113.43;;;;;;;;;;4961371;29;20091;-69
2021/12/28 10:35:54;;;;;;;183.63;72.20;;;;;;;;;;4960966;29;20023;-69
2021/12/28 10:38:29;;;;;;;180.82;74.93;;;;;;;;;;4960721;29;20039;-69
2021/12/28 10:41:02;;;;;;;194.38;81.63;;;;;;;;;;4959932;29;20032;-74
2021/12/28 10:43:30;;;;;;;225.60;94.45;;;;;;;;;;4974913;28;20193;-75
2021/12/28 10:46:00;;;;;;;320.70;147.23;;;;;;;;;;4981283;28;20114;-72
2021/12/28 10:48:39;;;;;;;223.25;100.38;;;;;;;;;;4981781;28;20062;-70
2021/12/28 10:51:12;;;;;;;255.18;113.50;;;;;;;;;;4989334;28;20014;-72
2021/12/28 10:54:17;;;;;;;225.60;99.43;;;;;;;;;;4996526;28;20061;-72
2021/12/28 10:56:57;;;;;;;196.65;83.28;;;;;;;;;;5039653;28;20087;-70
2021/12/28 10:59:33;;;;;;;188.82;78.95;;;;;;;;;;5043088;28;20045;-75
2021/12/28 11:02:00;;;;;;;186.98;72.30;;;;;;;;;;5041598;28;20021;-68
2021/12/28 11:04:36;;;;;;;170.40;73.68;;;;;;;;;;5040289;28;20021;-68
2021/12/28 11:07:06;;;;;;;152.40;65.18;;;;;;;;;;5040333;28;20036;-68
2021/12/28 11:09:34;;;;;;;156.77;71.30;;;;;;;;;;5039890;28;20029;-68
2021/12/28 11:12:02;;;;;;;167.55;67.40;;;;;;;;;;5039507;28;20425;-68
2021/12/28 11:14:30;;;;;;;157.18;65.45;;;;;;;;;;5040178;28;20509;-68
2021/12/28 11:17:01;;;;;;;134.35;59.33;;;;;;;;;;5040499;28;20029;-68
2021/12/28 11:19:31;;;;;;;146.85;63.25;;;;;;;;;;5039862;28;20026;-68
2021/12/28 11:22:03;;;;;;;150.90;65.97;;;;;;;;;;5039600;28;20096;-67
2021/12/28 11:24:35;;;;;;;159.73;70.57;;;;;;;;;;5037451;28;20303;-68
2021/12/28 11:27:03;;;;;;;233.05;95.50;;;;;;;;;;5040525;28;20047;-67
2021/12/28 11:29:31;;;;;;;219.35;94.85;;;;;;;;;;5040092;28;20046;-68
2021/12/28 11:32:01;;;;;;;240.55;104.70;;;;;;;;;;5039911;28;20319;-67
2021/12/28 11:34:31;;;;;;;250.63;110.32;;;;;;;;;;5039078;28;20025;-68
2021/12/28 11:37:20;;;;;;;307.15;133.02;;;;;;;;;;5039961;28;20025;-68
2021/12/28 11:39:49;;;;;;;270.45;118.38;;;;;;;;;;5039757;28;20310;-67
2021/12/28 11:42:19;;;;;;;261.63;109.03;;;;;;;;;;5038062;28;20342;-67
2021/12/28 11:44:47;;;;;;;243.30;102.30;;;;;;;;;;5038377;28;20045;-68
2021/12/28 11:47:15;;;;;;;246.15;101.10;;;;;;;;;;5038764;28;20330;-67
2021/12/28 11:49:44;;;;;;;213.32;88.78;;;;;;;;;;5038525;28;20049;-68
2021/12/28 11:52:15;;;;;;;199.02;82.75;;;;;;;;;;5039658;28;20080;-67
2021/12/28 11:54:44;;;;;;;188.18;79.15;;;;;;;;;;5038242;28;20018;-68
2021/12/28 11:57:18;;;;;;;199.75;82.20;;;;;;;;;;5038565;28;20029;-68
2021/12/28 11:59:53;;;;;;;191.43;80.60;;;;;;;;;;5038130;28;20096;-68
2021/12/28 12:02:20;;;;;;;204.60;84.88;;;;;;;;;;5037941;28;20445;-68
2021/12/28 12:04:52;;;;;;;193.98;79.57;;;;;;;;;;5038502;28;20470;-68
2021/12/28 12:07:24;;;;;;;194.77;77.25;;;;;;;;;;5038586;28;20057;-67
2021/12/28 12:09:53;;;;;;;195.82;78.50;;;;;;;;;;5037552;28;20104;-68
2021/12/28 12:12:34;;;;;;;203.45;83.22;;;;;;;;;;5038556;28;20033;-68
2021/12/28 12:15:08;;;;;;;215.25;84.57;;;;;;;;;;5038279;28;20021;-67
2021/12/28 12:17:39;;;;;;;213.20;87.70;;;;;;;;;;5038095;28;20036;-67
2021/12/28 12:20:18;;;;;;;231.98;85.68;;;;;;;;;;5037085;28;20025;-68
2021/12/28 12:22:48;;;;;;;199.73;78.55;;;;;;;;;;5037231;28;20037;-67
2021/12/28 12:25:19;;;;;;;219.10;85.30;;;;;;;;;;5037055;28;20049;-67
2021/12/28 12:28:01;;;;;;;198.38;78.28;;;;;;;;;;5039073;28;20430;-66
2021/12/28 12:30:27;;;;;;;195.52;80.22;;;;;;;;;;5039215;28;20064;-67
2021/12/28 12:32:57;;;;;;;183.15;76.57;;;;;;;;;;5037695;28;20037;-67
2021/12/28 12:35:42;;;;;;;190.45;74.65;;;;;;;;;;5037252;28;20025;-68
2021/12/28 12:38:17;;;;;;;198.02;79.07;;;;;;;;;;5040323;28;20442;-69
2021/12/28 12:41:04;;;;;;;205.77;83.25;;;;;;;;;;5039329;28;20080;-67
2021/12/28 12:43:49;;;;;;;216.25;95.55;;;;;;;;;;5040693;28;20033;-68
2021/12/28 12:46:27;;;;;;;223.32;100.55;;;;;;;;;;5039027;28;20025;-70
2021/12/28 12:49:11;;;;;;;245.13;110.53;;;;;;;;;;5037815;28;20029;-68
2021/12/28 12:51:49;;;;;;;225.13;102.32;;;;;;;;;;5039410;28;20026;-67
2021/12/28 12:54:22;;;;;;;225.68;93.00;;;;;;;;;;5038713;28;20095;-67
2021/12/28 12:56:57;;;;;;;206.65;84.88;;;;;;;;;;5037732;28;20021;-67
2021/12/28 12:59:28;;;;;;;188.93;81.28;;;;;;;;;;5037488;28;20021;-69
2021/12/28 13:02:00;;;;;;;245.05;99.78;;;;;;;;;;5039260;28;20025;-69
2021/12/28 13:04:32;;;;;;;416.30;161.85;;;;;;;;;;5037434;28;20025;-67
2021/12/28 13:07:08;;;;;;;546.72;236.55;;;;;;;;;;5046907;28;20021;-73
2021/12/28 13:09:40;;;;;;;514.47;229.82;;;;;;;;;;5039269;28;20075;-67
2021/12/28 13:12:09;;;;;;;622.00;304.35;;;;;;;;;;5035853;28;20025;-67
2021/12/28 13:14:36;;;;;;;667.03;326.70;;;;;;;;;;5037433;28;20025;-68
2021/12/28 13:17:18;;;;;;;591.92;278.95;;;;;;;;;;5036873;28;20029;-67
2021/12/28 13:20:07;;;;;;;532.95;226.75;;;;;;;;;;5017926;28;20106;-69
2021/12/28 13:22:40;;;;;;;472.42;194.30;;;;;;;;;;5017774;28;20097;-66
2021/12/28 13:25:11;;;;;;;408.13;168.32;;;;;;;;;;5016383;28;20030;-67
2021/12/28 13:27:40;;;;;;;419.00;174.93;;;;;;;;;;5017025;28;20029;-68
2021/12/28 13:30:10;;;;;;;428.38;187.35;;;;;;;;;;5017394;28;20085;-67
2021/12/28 13:32:39;;;;;;;497.75;217.02;;;;;;;;;;5018020;28;20052;-68
2021/12/28 13:35:11;;;;;;;500.42;225.07;;;;;;;;;;5019439;28;20032;-67
2021/12/28 13:37:55;;;;;;;498.90;218.32;;;;;;;;;;5018446;28;20029;-66
2021/12/28 13:40:39;;;;;;;478.63;205.57;;;;;;;;;;5019359;28;20032;-68
2021/12/28 13:43:13;;;;;;;462.58;202.82;;;;;;;;;;5019092;28;20022;-67
2021/12/28 13:45:43;;;;;;;474.83;207.95;;;;;;;;;;5019014;28;20026;-68
2021/12/28 13:48:26;;;;;;;483.88;207.90;;;;;;;;;;5019218;28;20025;-69
2021/12/28 13:51:01;;;;;;;453.05;202.25;;;;;;;;;;5019089;28;20030;-67
2021/12/28 13:53:35;;;;;;;461.13;204.55;;;;;;;;;;5018225;28;20022;-67
2021/12/28 13:56:13;;;;;;;459.80;198.10;;;;;;;;;;5016744;28;20030;-68
2021/12/28 13:58:43;;;;;;;536.92;238.27;;;;;;;;;;5016438;28;20026;-66
2021/12/28 14:01:30;;;;;;;747.53;377.30;;;;;;;;;;5015822;28;20057;-67
2021/12/28 14:04:03;;;;;;;505.35;223.02;;;;;;;;;;5016764;28;20300;-66
2021/12/28 14:06:35;;;;;;;402.55;166.63;;;;;;;;;;5016100;28;20419;-67
2021/12/28 14:09:04;;;;;;;389.88;155.38;;;;;;;;;;5014927;28;20026;-67
2021/12/28 14:11:50;;;;;;;371.92;155.98;;;;;;;;;;5015956;28;20101;-67
2021/12/28 14:14:22;;;;;;;447.50;182.82;;;;;;;;;;5016534;28;20022;-68
2021/12/28 14:17:03;;;;;;;381.90;162.98;;;;;;;;;;5016058;28;20022;-67
2021/12/28 14:19:32;;;;;;;365.92;149.70;;;;;;;;;;5016691;28;20022;-67
2021/12/28 14:22:00;;;;;;;349.50;148.65;;;;;;;;;;5016391;28;20022;-67